Time;durP1;ratioP1;P1;durP2;ratioP2;P2;SDS_P1;SDS_P2;PMS_P1;PMS_P2;Temp;Humidity;BMP_temperature;BMP_pressure;BME280_temperature;BME280_humidity;BME280_pressure;Samples;Min_cycle;Max_cycle;Signal;HPM_P1;HPM_P2
2023/02/22 00:02:09;;;;;;;29.70;16.60;;;;;;;4.56;66.76;99902.47;10342015;28;20140;-80
2023/02/22 00:07:11;;;;;;;35.90;20.25;;;;;;;4.42;66.77;99891.78;10350032;28;20103;-80
2023/02/22 00:12:15;;;;;;;19.40;10.43;;;;;;;4.38;67.22;99887.59;10348673;28;20046;-80
2023/02/22 00:17:19;;;;;;;38.17;11.52;;;;;;;4.53;66.75;99896.56;10347493;28;20418;-80
2023/02/22 00:22:21;;;;;;;100.03;17.23;;;;;;;4.63;66.57;99885.84;10349340;28;20042;-80
2023/02/22 00:27:22;;;;;;;268.10;28.88;;;;;;;4.62;66.63;99886.72;10350204;28;20045;-80
2023/02/22 00:32:24;;;;;;;283.50;26.52;;;;;;;4.68;66.76;99880.47;10348772;28;20049;-80
2023/02/22 00:37:30;;;;;;;285.40;29.08;;;;;;;4.62;66.72;99884.13;10346548;28;20101;-80
2023/02/22 00:42:32;;;;;;;207.40;19.20;;;;;;;4.63;67.15;99875.47;10343999;28;20157;-80
2023/02/22 00:47:34;;;;;;;143.45;16.45;;;;;;;4.66;66.93;99877.09;10346873;28;20129;-80
2023/02/22 00:52:36;;;;;;;164.50;21.55;;;;;;;4.67;66.73;99871.00;10341128;28;20052;-80
2023/02/22 00:57:39;;;;;;;145.48;16.95;;;;;;;4.71;66.70;99877.78;10342695;28;20828;-80
2023/02/22 01:02:42;;;;;;;162.73;15.57;;;;;;;4.74;66.81;99869.06;10341701;28;20133;-80
2023/02/22 01:07:44;;;;;;;180.43;20.60;;;;;;;4.75;66.75;99862.94;10357448;28;20049;-80
2023/02/22 01:12:46;;;;;;;146.95;17.77;;;;;;;4.75;66.88;99858.63;10349323;28;20042;-80
2023/02/22 01:17:52;;;;;;;229.40;32.55;;;;;;;4.72;66.87;99855.31;10347239;28;21561;-79
2023/02/22 01:22:57;;;;;;;174.38;28.60;;;;;;;4.71;66.85;99844.09;10344171;28;20955;-79
2023/02/22 01:28:00;;;;;;;204.70;39.50;;;;;;;4.65;66.57;99840.00;10347010;28;20050;-79
2023/02/22 01:33:04;;;;;;;181.82;39.85;;;;;;;4.64;66.35;99835.69;10347349;28;20045;-79
2023/02/22 01:38:07;;;;;;;221.88;43.90;;;;;;;4.64;66.52;99833.09;10353531;28;21973;-79
2023/02/22 01:43:21;;;;;;;248.80;38.20;;;;;;;4.61;66.60;99820.28;10358376;28;20046;-79
2023/02/22 01:48:35;;;;;;;241.35;37.25;;;;;;;4.62;66.52;99816.78;10352539;28;20050;-79
2023/02/22 01:53:46;;;;;;;202.73;31.17;;;;;;;4.61;66.54;99814.25;10348779;28;20072;-78
2023/02/22 01:58:53;;;;;;;229.75;32.00;;;;;;;4.61;66.50;99802.16;10340843;28;20192;-78
2023/02/22 02:03:58;;;;;;;203.57;26.90;;;;;;;4.59;66.74;99806.56;10346741;28;20061;-78
2023/02/22 02:09:30;;;;;;;162.18;22.40;;;;;;;4.56;66.93;99810.97;10340594;28;20148;-78
2023/02/22 02:14:39;;;;;;;186.18;21.95;;;;;;;4.62;66.99;99803.84;10351176;28;20048;-78
2023/02/22 02:19:47;;;;;;;191.50;22.92;;;;;;;4.65;66.86;99795.13;10359965;28;20066;-78
2023/02/22 02:24:52;;;;;;;193.57;23.27;;;;;;;4.62;66.48;99792.63;10353062;28;20046;-78
2023/02/22 02:30:34;;;;;;;150.48;21.90;;;;;;;4.50;66.91;99796.53;10352226;28;20058;-79
2023/02/22 02:35:45;;;;;;;224.23;19.70;;;;;;;4.42;66.95;99793.38;10347709;28;20077;-78
2023/02/22 02:41:01;;;;;;;244.30;21.63;;;;;;;4.44;67.52;99786.41;10344504;28;20057;-79
2023/02/22 02:46:03;;;;;;;305.80;27.90;;;;;;;4.56;67.23;99788.53;10340703;28;20049;-78
2023/02/22 02:51:10;;;;;;;224.20;25.60;;;;;;;4.66;67.27;99786.41;10333290;28;20057;-78
2023/02/22 02:56:12;;;;;;;300.77;34.60;;;;;;;4.68;67.18;99779.44;10341415;28;20514;-78
2023/02/22 03:01:36;;;;;;;217.23;27.15;;;;;;;4.67;66.94;99783.78;10342832;28;20128;-78
2023/02/22 03:06:58;;;;;;;146.77;15.52;;;;;;;4.68;67.29;99779.44;10337888;28;20050;-79
2023/02/22 03:12:21;;;;;;;154.52;15.65;;;;;;;4.60;67.34;99774.56;10346462;28;20067;-78
2023/02/22 03:17:36;;;;;;;135.73;15.52;;;;;;;4.65;67.51;99783.00;10350066;28;20046;-79
2023/02/22 03:23:16;;;;;;;150.30;15.57;;;;;;;4.55;67.54;99781.69;10345616;28;20062;-79
2023/02/22 03:28:26;;;;;;;143.82;14.07;;;;;;;4.58;67.63;99775.50;10344913;28;20049;-79
2023/02/22 03:33:50;;;;;;;187.10;14.73;;;;;;;4.54;67.88;99774.78;10346807;28;20045;-79
2023/02/22 03:38:54;;;;;;;186.95;13.95;;;;;;;4.61;67.69;99773.66;10353928;28;20054;-79
2023/02/22 03:44:08;;;;;;;221.88;15.38;;;;;;;4.59;67.72;99769.44;10360454;28;20152;-80
2023/02/22 03:49:41;;;;;;;157.13;14.50;;;;;;;4.57;67.87;99774.69;10349672;28;20430;-79
2023/02/22 03:54:43;;;;;;;204.15;21.38;;;;;;;4.61;67.65;99770.22;10349911;28;20069;-80
2023/02/22 03:59:45;;;;;;;353.48;29.80;;;;;;;4.68;67.61;99766.47;10349345;28;20066;-80
2023/02/22 04:04:47;;;;;;;405.63;38.67;;;;;;;4.66;67.43;99769.13;10341813;28;20140;-80
2023/02/22 04:09:49;;;;;;;526.45;41.20;;;;;;;4.63;67.49;99765.84;10348284;28;20695;-80
2023/02/22 04:14:51;;;;;;;541.05;41.20;;;;;;;4.64;67.62;99770.94;10344336;28;20046;-80
2023/02/22 04:19:53;;;;;;;436.52;28.38;;;;;;;4.49;67.87;99776.72;10346640;28;20056;-80
2023/02/22 04:24:54;;;;;;;451.13;29.58;;;;;;;4.37;67.97;99769.38;10351615;28;20054;-79
2023/02/22 04:29:56;;;;;;;574.30;34.22;;;;;;;4.43;68.05;99763.97;10350170;28;20064;-80
2023/02/22 04:34:58;;;;;;;376.08;25.75;;;;;;;4.51;68.17;99764.56;10354251;28;20096;-79
2023/02/22 04:40:01;;;;;;;272.67;16.00;;;;;;;4.57;68.03;99756.56;10353434;28;20411;-80
2023/02/22 04:45:04;;;;;;;260.65;21.27;;;;;;;4.51;68.12;99759.38;10358616;28;20046;-80
2023/02/22 04:50:10;;;;;;;299.15;19.42;;;;;;;4.53;67.97;99762.75;10348914;28;20062;-80
2023/02/22 04:55:12;;;;;;;217.85;18.75;;;;;;;4.55;68.07;99760.97;10348875;28;20062;-80
2023/02/22 05:00:20;;;;;;;188.13;17.98;;;;;;;4.60;67.94;99756.44;10343446;28;20184;-80
2023/02/22 05:05:22;;;;;;;264.20;16.63;;;;;;;4.61;67.96;99747.78;10348204;28;20503;-79
2023/02/22 05:10:24;;;;;;;327.17;20.83;;;;;;;4.64;67.97;99747.63;10347998;28;20057;-80
2023/02/22 05:15:26;;;;;;;427.88;29.23;;;;;;;4.60;67.56;99750.41;10357524;28;20415;-80
2023/02/22 05:20:30;;;;;;;366.27;22.70;;;;;;;4.56;67.55;99749.69;10348343;28;20561;-80
2023/02/22 05:25:32;;;;;;;329.58;24.70;;;;;;;4.64;67.35;99745.03;10353385;28;20046;-80
2023/02/22 05:30:38;;;;;;;337.85;21.38;;;;;;;4.67;67.38;99742.34;10350784;28;20081;-80
2023/02/22 05:35:40;;;;;;;356.85;26.80;;;;;;;4.65;66.98;99740.72;10357894;28;20183;-80
2023/02/22 05:40:42;;;;;;;291.00;23.27;;;;;;;4.58;66.95;99747.88;10352241;28;20057;-80
2023/02/22 05:45:43;;;;;;;318.58;23.48;;;;;;;4.57;67.25;99751.38;10352521;28;20054;-80
2023/02/22 05:50:46;;;;;;;244.02;21.75;;;;;;;4.63;67.28;99743.38;10351092;28;20046;-80
2023/02/22 05:55:47;;;;;;;332.42;26.77;;;;;;;4.62;66.91;99741.66;10345020;28;20050;-80
2023/02/22 06:00:49;;;;;;;277.52;24.35;;;;;;;4.48;67.08;99738.78;10352591;28;20061;-80
2023/02/22 06:05:51;;;;;;;348.83;27.65;;;;;;;4.33;67.01;99735.94;10350246;28;20221;-80
2023/02/22 06:10:53;;;;;;;421.55;22.35;;;;;;;4.21;67.27;99734.63;10350724;28;20054;-79
2023/02/22 06:15:55;;;;;;;180.02;20.15;;;;;;;4.01;67.67;99739.69;10349220;28;20057;-80
2023/02/22 06:20:58;;;;;;;237.80;22.23;;;;;;;4.30;67.78;99739.47;10349855;28;20054;-79
2023/02/22 06:25:59;;;;;;;166.45;19.00;;;;;;;4.43;67.60;99740.66;10347794;28;20384;-79
2023/02/22 06:31:01;;;;;;;229.63;23.25;;;;;;;4.49;67.21;99749.97;10351018;28;20054;-79
2023/02/22 06:36:04;;;;;;;247.57;24.60;;;;;;;4.45;67.31;99748.41;10347685;28;20056;-79
2023/02/22 06:41:07;;;;;;;230.35;25.25;;;;;;;4.45;67.20;99745.81;10351225;28;21479;-80
2023/02/22 06:46:10;;;;;;;300.33;25.73;;;;;;;4.49;67.05;99752.56;10350494;28;20136;-80
2023/02/22 06:51:11;;;;;;;317.77;25.00;;;;;;;4.41;67.24;99746.84;10351721;28;20054;-79
2023/02/22 06:56:13;;;;;;;269.88;21.25;;;;;;;4.43;67.01;99751.03;10352736;28;20501;-80
2023/02/22 07:01:15;;;;;;;366.63;27.52;;;;;;;4.50;67.14;99754.25;10350503;28;20387;-79
2023/02/22 07:06:17;;;;;;;284.50;24.92;;;;;;;4.26;67.36;99755.16;10354285;28;20054;-79
2023/02/22 07:11:19;;;;;;;255.90;30.35;;;;;;;4.38;67.29;99755.56;10353322;28;20112;-79
2023/02/22 07:16:21;;;;;;;146.75;21.52;;;;;;;4.29;67.53;99768.81;10350932;28;20046;-79
2023/02/22 07:21:23;;;;;;;199.57;22.23;;;;;;;4.55;67.16;99760.97;10347944;28;20068;-80
2023/02/22 07:26:26;;;;;;;186.15;21.80;;;;;;;4.75;67.06;99759.31;10349304;28;20042;-80
2023/02/22 07:31:28;;;;;;;225.50;20.05;;;;;;;4.93;66.84;99751.69;10345219;28;20754;-80
2023/02/22 07:36:30;;;;;;;327.85;28.65;;;;;;;4.95;66.35;99749.03;10361021;28;20125;-79
2023/02/22 07:41:31;;;;;;;280.08;21.90;;;;;;;4.96;66.24;99751.56;10345156;28;20054;-79
2023/02/22 07:46:33;;;;;;;193.00;20.05;;;;;;;4.89;66.39;99749.25;10347002;28;20384;-79
2023/02/22 07:51:35;;;;;;;179.00;15.52;;;;;;;4.87;66.02;99749.34;10342983;28;20057;-79
2023/02/22 07:56:43;;;;;;;237.18;24.10;;;;;;;4.65;66.44;99754.53;10335429;28;20422;-80
2023/02/22 08:01:48;;;;;;;185.10;23.40;;;;;;;4.91;66.59;99747.47;10347808;28;20061;-80
2023/02/22 08:06:50;;;;;;;154.50;21.58;;;;;;;4.98;66.17;99760.13;10359220;28;20396;-79
2023/02/22 08:11:53;;;;;;;150.82;17.58;;;;;;;5.19;66.13;99756.66;10334031;28;20699;-79
2023/02/22 08:16:55;;;;;;;85.70;16.05;;;;;;;5.18;65.87;99756.72;10346533;28;20074;-79
2023/02/22 08:21:57;;;;;;;102.72;14.90;;;;;;;5.12;66.04;99754.38;10339607;28;20058;-79
2023/02/22 08:27:03;;;;;;;73.85;14.20;;;;;;;5.05;66.21;99748.59;10337727;28;20058;-80
2023/02/22 08:32:06;;;;;;;153.90;20.95;;;;;;;4.88;66.29;99753.63;10340399;28;20470;-79
2023/02/22 08:37:08;;;;;;;174.95;19.92;;;;;;;4.99;66.03;99748.00;10338986;28;20772;-79
2023/02/22 08:42:10;;;;;;;183.10;19.45;;;;;;;4.94;66.01;99742.16;10342434;28;20064;-79
2023/02/22 08:47:16;;;;;;;164.43;18.65;;;;;;;4.86;66.51;99739.84;10340954;28;20057;-79
2023/02/22 08:52:27;;;;;;;141.57;17.38;;;;;;;5.04;66.41;99739.16;10342431;28;20045;-79
2023/02/22 08:57:30;;;;;;;134.63;16.77;;;;;;;4.99;66.51;99732.44;10333992;28;20065;-79
2023/02/22 09:02:35;;;;;;;247.65;22.27;;;;;;;4.94;66.67;99734.41;10346333;28;20128;-79
2023/02/22 09:07:41;;;;;;;174.80;20.52;;;;;;;4.94;66.81;99726.63;10345689;28;20661;-78
2023/02/22 09:12:43;;;;;;;201.75;23.27;;;;;;;5.21;66.40;99723.75;10342120;28;20050;-79
2023/02/22 09:17:45;;;;;;;189.88;22.35;;;;;;;5.25;66.17;99721.84;10344371;28;20046;-78
2023/02/22 09:23:34;;;;;;;70.20;16.55;;;;;;;5.17;66.92;99713.56;10343395;28;20499;-79
2023/02/22 09:28:36;;;;;;;114.68;17.92;;;;;;;5.52;66.51;99716.38;10338786;28;20188;-79
2023/02/22 09:33:39;;;;;;;100.43;17.40;;;;;;;5.62;66.03;99711.63;10343257;28;20104;-79
2023/02/22 09:38:41;;;;;;;223.48;24.33;;;;;;;5.52;66.08;99710.34;10334690;28;20414;-79
2023/02/22 09:44:05;;;;;;;208.90;23.33;;;;;;;5.62;66.70;99703.84;10339888;28;20046;-78
2023/02/22 09:49:36;;;;;;;118.80;17.92;;;;;;;5.77;66.07;99708.38;10338128;28;20046;-79
2023/02/22 09:54:42;;;;;;;216.03;22.93;;;;;;;5.66;66.08;99697.59;10332561;28;20046;-79
2023/02/22 10:00:12;;;;;;;189.30;24.85;;;;;;;5.75;66.07;99696.38;10343309;28;20479;-79
2023/02/22 10:05:32;;;;;;;284.35;21.15;;;;;;;6.03;65.67;99696.81;10348297;28;20586;-79
2023/02/22 10:10:40;;;;;;;80.73;20.50;;;;;;;5.83;66.29;99682.16;10353440;28;20054;-79
2023/02/22 10:16:00;;;;;;;130.75;21.33;;;;;;;5.74;66.61;99686.91;10349340;28;20050;-79
2023/02/22 10:21:20;;;;;;;103.65;19.23;;;;;;;5.85;66.55;99674.28;10351152;28;20089;-80
2023/02/22 10:26:31;;;;;;;127.30;22.98;;;;;;;5.95;66.40;99675.56;10346975;28;20052;-80
2023/02/22 10:31:39;;;;;;;108.07;23.03;;;;;;;6.16;66.47;99677.19;10351431;28;20056;-79
2023/02/22 10:36:45;;;;;;;96.93;24.30;;;;;;;6.20;66.17;99669.22;10349407;28;20640;-80
2023/02/22 10:41:52;;;;;;;39.78;21.58;;;;;;;6.32;65.95;99665.22;10348017;28;20431;-80
2023/02/22 10:46:54;;;;;;;49.92;23.42;;;;;;;6.71;65.77;99665.09;10355046;28;20499;-80
2023/02/22 10:52:01;;;;;;;81.65;25.55;;;;;;;6.81;65.33;99661.13;10346510;28;21335;-80
2023/02/22 10:57:03;;;;;;;44.00;22.77;;;;;;;6.77;65.63;99659.59;10342789;28;21534;-80
2023/02/22 11:02:22;;;;;;;45.13;22.50;;;;;;;7.03;65.59;99659.16;10335188;28;20478;-79
2023/02/22 11:07:26;;;;;;;50.20;24.63;;;;;;;7.02;64.92;99652.28;10334019;28;20038;-80
2023/02/22 11:12:36;;;;;;;43.88;22.98;;;;;;;7.34;64.77;99643.72;10347856;28;20053;-79
2023/02/22 11:17:39;;;;;;;39.97;22.30;;;;;;;7.37;64.26;99643.53;10353078;28;20128;-78
2023/02/22 11:22:42;;;;;;;43.65;23.88;;;;;;;7.49;64.21;99642.09;10354023;28;20065;-78
2023/02/22 11:27:45;;;;;;;44.25;23.35;;;;;;;7.90;63.67;99627.72;10341670;28;20089;-78
2023/02/22 11:32:52;;;;;;;34.17;21.00;;;;;;;8.10;63.32;99619.69;10342836;28;20049;-78
2023/02/22 11:38:25;;;;;;;43.13;23.75;;;;;;;8.28;61.92;99615.25;10339513;28;20148;-78
2023/02/22 11:43:27;;;;;;;40.80;23.42;;;;;;;8.01;62.93;99608.00;10335301;28;20050;-78
2023/02/22 11:48:35;;;;;;;33.40;21.45;;;;;;;8.18;63.24;99606.28;10334405;28;20085;-78
2023/02/22 11:54:02;;;;;;;44.42;24.77;;;;;;;8.58;62.63;99606.56;10343029;28;20060;-78
2023/02/22 11:59:40;;;;;;;42.72;23.67;;;;;;;8.43;62.28;99607.41;10331358;28;20068;-78
2023/02/22 12:04:53;;;;;;;40.72;22.92;;;;;;;8.71;62.96;99609.28;10327622;28;20053;-78
2023/02/22 12:10:13;;;;;;;40.35;24.38;;;;;;;8.66;62.74;99599.16;10341566;28;20069;-79
2023/02/22 12:15:30;;;;;;;45.08;25.42;;;;;;;8.69;62.16;99591.13;10330690;28;20507;-79
2023/02/22 12:20:54;;;;;;;34.28;22.05;;;;;;;8.93;62.25;99591.50;10339255;28;20057;-79
2023/02/22 12:26:24;;;;;;;36.28;21.88;;;;;;;8.93;61.38;99578.47;10334054;28;20065;-78
2023/02/22 12:31:32;;;;;;;33.97;22.23;;;;;;;9.03;61.97;99569.16;10348118;28;20495;-79
2023/02/22 12:36:46;;;;;;;34.00;22.67;;;;;;;9.05;62.10;99562.09;10333751;28;20499;-78
2023/02/22 12:41:53;;;;;;;32.30;21.90;;;;;;;9.25;61.63;99555.66;10336102;28;21051;-78
2023/02/22 12:46:59;;;;;;;28.73;20.83;;;;;;;9.22;61.59;99548.03;10322073;28;20055;-78
2023/02/22 12:52:26;;;;;;;30.33;20.80;;;;;;;9.10;62.39;99528.72;10339677;28;20076;-78
2023/02/22 12:57:29;;;;;;;32.30;22.23;;;;;;;9.45;62.08;99535.25;10329448;28;20049;-79
2023/02/22 13:02:34;;;;;;;31.00;21.70;;;;;;;9.32;62.22;99531.72;10331949;28;20054;-78
2023/02/22 13:08:04;;;;;;;32.15;21.30;;;;;;;9.42;62.26;99527.59;10344787;28;20052;-78
2023/02/22 13:13:15;;;;;;;29.23;20.92;;;;;;;9.56;61.61;99530.19;10338494;28;20054;-78
2023/02/22 13:18:34;;;;;;;27.85;19.65;;;;;;;9.66;61.57;99530.53;10343331;28;20053;-78
2023/02/22 13:23:53;;;;;;;29.00;20.27;;;;;;;9.53;61.48;99521.72;10347372;28;20555;-78
2023/02/22 13:29:12;;;;;;;25.75;19.00;;;;;;;9.54;61.80;99516.41;10346612;28;20529;-78
2023/02/22 13:35:28;;;;;;;27.23;18.83;;;;;;;9.65;61.38;99515.75;10352616;28;20136;-78
2023/02/22 13:40:40;;;;;;;26.40;18.90;;;;;;;9.84;61.48;99505.88;10194672;28;20126;-78
2023/02/22 13:46:00;;;;;;;26.25;19.23;;;;;;;10.17;61.09;99492.41;10348391;28;20064;-79
2023/02/22 13:51:14;;;;;;;23.90;18.25;;;;;;;10.16;60.88;99490.72;10354779;28;20124;-79
2023/02/22 13:56:18;;;;;;;25.27;18.60;;;;;;;10.19;60.67;99483.53;10347755;28;21064;-79
2023/02/22 14:01:39;;;;;;;25.50;18.45;;;;;;;10.09;60.32;99476.41;10346952;28;20065;-78
2023/02/22 14:06:41;;;;;;;24.17;18.33;;;;;;;10.17;60.71;99479.34;10361517;28;20105;-79
2023/02/22 14:11:46;;;;;;;22.10;17.42;;;;;;;10.23;60.71;99485.03;10348572;28;20119;-79
2023/02/22 14:17:26;;;;;;;27.33;17.85;;;;;;;10.37;59.95;99489.34;10342900;28;20555;-78
2023/02/22 14:22:28;;;;;;;27.20;17.75;;;;;;;10.45;60.26;99471.38;10236609;28;20252;-79
2023/02/22 14:27:40;;;;;;;30.55;18.08;;;;;;;10.51;60.27;99460.50;10344787;28;20127;-78
2023/02/22 14:32:42;;;;;;;27.23;18.88;;;;;;;10.54;60.50;99460.31;10342295;28;20049;-79
2023/02/22 14:37:53;;;;;;;23.98;17.90;;;;;;;10.72;60.34;99464.28;10346658;28;20050;-78
2023/02/22 14:42:57;;;;;;;24.63;17.20;;;;;;;10.87;60.15;99463.25;10346095;28;20050;-78
2023/02/22 14:48:12;;;;;;;24.27;17.45;;;;;;;11.14;59.67;99461.38;10353179;28;20064;-78
2023/02/22 14:53:24;;;;;;;24.08;16.80;;;;;;;11.46;59.22;99458.31;10352814;28;20050;-79
2023/02/22 14:58:38;;;;;;;24.08;16.70;;;;;;;11.58;58.42;99453.00;10353968;28;20213;-78
2023/02/22 15:03:40;;;;;;;23.17;17.40;;;;;;;11.64;58.13;99449.13;10350057;28;20056;-78
2023/02/22 15:08:47;;;;;;;21.63;16.38;;;;;;;11.59;58.50;99453.84;10353644;28;20053;-78
2023/02/22 15:13:53;;;;;;;23.70;16.80;;;;;;;11.66;58.17;99447.25;10353512;28;20470;-79
2023/02/22 15:18:58;;;;;;;23.00;16.80;;;;;;;11.51;58.44;99448.31;10352903;28;20050;-78
2023/02/22 15:24:03;;;;;;;23.00;17.25;;;;;;;11.32;59.08;99449.63;10353168;28;20060;-78
2023/02/22 15:29:19;;;;;;;26.20;17.70;;;;;;;11.18;59.35;99456.75;10349351;28;20049;-79
2023/02/22 15:34:28;;;;;;;24.98;16.58;;;;;;;11.19;59.39;99453.22;10358700;28;20050;-79
2023/02/22 15:39:33;;;;;;;28.60;18.08;;;;;;;11.21;59.65;99456.56;10349466;28;20058;-79
2023/02/22 15:44:42;;;;;;;24.52;17.30;;;;;;;11.23;59.65;99446.81;10350291;28;20042;-78
2023/02/22 15:49:43;;;;;;;29.00;18.02;;;;;;;11.24;59.53;99445.88;10354165;28;20052;-79
2023/02/22 15:54:49;;;;;;;26.05;18.63;;;;;;;11.27;59.52;99451.72;10354280;28;20054;-79
2023/02/22 15:59:54;;;;;;;21.38;16.20;;;;;;;11.12;59.43;99455.41;10352177;28;20057;-78
2023/02/22 16:05:01;;;;;;;22.10;16.73;;;;;;;11.01;59.89;99470.97;10354825;28;20061;-78
2023/02/22 16:10:07;;;;;;;22.42;15.82;;;;;;;10.95;60.21;99473.19;10347997;28;20131;-78
2023/02/22 16:15:19;;;;;;;25.05;15.95;;;;;;;10.76;60.08;99460.53;10350574;28;20085;-78
2023/02/22 16:20:26;;;;;;;22.02;15.88;;;;;;;10.59;60.70;99468.66;10346804;28;20060;-79
2023/02/22 16:25:34;;;;;;;27.70;16.98;;;;;;;10.50;60.57;99466.69;10361181;28;20156;-78
2023/02/22 16:30:38;;;;;;;24.90;17.02;;;;;;;10.39;61.14;99474.38;10340096;28;20443;-78
2023/02/22 16:35:50;;;;;;;23.88;17.08;;;;;;;10.30;61.26;99472.38;10339865;28;20157;-78
2023/02/22 16:40:54;;;;;;;27.60;18.60;;;;;;;10.23;61.50;99476.34;10338722;28;20798;-79
2023/02/22 16:46:02;;;;;;;20.85;16.42;;;;;;;10.06;61.70;99477.44;10341485;28;20057;-79
2023/02/22 16:51:39;;;;;;;29.73;20.42;;;;;;;9.83;61.96;99477.25;10339703;28;20580;-78
2023/02/22 16:56:41;;;;;;;29.00;20.17;;;;;;;9.73;62.60;99476.16;10349098;28;20108;-78
2023/02/22 17:01:43;;;;;;;36.50;27.65;;;;;;;9.65;62.85;99489.63;10342351;28;20057;-79
2023/02/22 17:06:45;;;;;;;23.58;18.40;;;;;;;9.54;63.15;99490.31;10341183;28;20069;-79
2023/02/22 17:11:50;;;;;;;24.75;17.30;;;;;;;9.43;63.34;99489.31;10348009;28;20056;-79
2023/02/22 17:16:53;;;;;;;21.48;15.48;;;;;;;9.34;63.61;99500.31;10351461;28;20046;-79
2023/02/22 17:21:55;;;;;;;28.33;18.23;;;;;;;9.28;63.78;99500.69;10340174;28;20087;-79
2023/02/22 17:26:58;;;;;;;28.95;20.33;;;;;;;9.20;63.86;99497.72;10348255;28;20156;-78
2023/02/22 17:32:02;;;;;;;26.98;19.33;;;;;;;9.17;64.10;99505.72;10335229;28;20049;-78
2023/02/22 17:37:05;;;;;;;26.45;18.27;;;;;;;9.13;64.37;99509.44;10341874;28;20423;-78
2023/02/22 17:42:07;;;;;;;22.23;16.45;;;;;;;9.13;64.20;99514.66;10345547;28;20149;-78
2023/02/22 17:47:09;;;;;;;31.23;18.92;;;;;;;9.06;64.61;99510.72;10348462;28;20042;-78
2023/02/22 17:52:14;;;;;;;23.95;17.23;;;;;;;9.02;64.79;99522.28;10335021;28;20053;-78
2023/02/22 17:57:16;;;;;;;26.63;19.40;;;;;;;9.02;64.84;99520.53;10347098;28;20068;-79
2023/02/22 18:02:18;;;;;;;29.08;18.55;;;;;;;9.06;64.84;99521.16;10344344;28;20140;-78
2023/02/22 18:07:21;;;;;;;26.17;18.98;;;;;;;9.03;64.86;99519.59;10352473;28;20415;-78
2023/02/22 18:12:23;;;;;;;26.65;18.80;;;;;;;9.03;64.80;99518.75;10349981;28;20068;-79
2023/02/22 18:17:24;;;;;;;30.20;20.25;;;;;;;8.96;64.77;99515.66;10353743;28;20527;-79
2023/02/22 18:22:26;;;;;;;26.63;19.35;;;;;;;8.89;65.02;99514.38;10335628;28;20156;-79
2023/02/22 18:27:28;;;;;;;25.15;17.20;;;;;;;8.82;65.10;99520.88;10347167;28;20049;-78
2023/02/22 18:32:30;;;;;;;26.63;17.08;;;;;;;8.80;65.14;99520.13;10344050;28;20053;-78
2023/02/22 18:37:33;;;;;;;27.08;18.40;;;;;;;8.75;65.14;99523.00;10349457;28;20038;-79
2023/02/22 18:42:37;;;;;;;24.15;16.92;;;;;;;8.67;65.23;99516.53;10337877;28;20491;-78
2023/02/22 18:47:42;;;;;;;20.83;16.00;;;;;;;8.65;65.47;99518.41;10346728;28;20100;-79
2023/02/22 18:52:44;;;;;;;20.63;15.50;;;;;;;8.61;65.36;99514.28;10336847;28;20152;-78
2023/02/22 18:57:48;;;;;;;26.80;17.35;;;;;;;8.55;65.12;99528.53;10340935;28;20062;-78
2023/02/22 19:02:52;;;;;;;25.70;16.75;;;;;;;8.47;65.54;99516.88;10354677;28;20068;-78
2023/02/22 19:07:55;;;;;;;21.33;16.08;;;;;;;8.42;65.55;99514.53;10342184;28;20053;-78
2023/02/22 19:13:22;;;;;;;20.98;15.90;;;;;;;8.30;65.69;99512.66;10337819;28;20057;-78
2023/02/22 19:18:24;;;;;;;27.00;16.80;;;;;;;8.24;65.87;99514.75;10344101;28;20045;-78
2023/02/22 19:23:27;;;;;;;23.92;16.98;;;;;;;8.16;65.93;99516.94;10338401;28;20518;-82
2023/02/22 19:28:32;;;;;;;24.05;16.00;;;;;;;8.08;66.02;99519.13;10345243;28;20046;-79
2023/02/22 19:33:34;;;;;;;21.63;15.80;;;;;;;7.92;66.24;99514.75;10346463;28;20054;-79
2023/02/22 19:38:37;;;;;;;22.85;16.25;;;;;;;7.83;66.59;99509.22;10341578;28;20534;-78
2023/02/22 19:43:38;;;;;;;26.60;17.88;;;;;;;7.76;66.91;99518.28;10346528;28;20065;-79
2023/02/22 19:48:40;;;;;;;24.20;16.30;;;;;;;7.64;66.91;99512.00;10350816;28;20068;-79
2023/02/22 19:53:43;;;;;;;19.45;14.73;;;;;;;7.61;67.28;99513.94;10351319;28;20046;-79
2023/02/22 19:58:48;;;;;;;18.95;14.75;;;;;;;7.52;67.51;99515.25;10352274;28;20046;-79
2023/02/22 20:03:53;;;;;;;20.40;16.08;;;;;;;7.55;67.45;99515.06;10352222;28;20115;-79
2023/02/22 20:08:55;;;;;;;23.08;16.13;;;;;;;7.56;67.25;99516.78;10352126;28;20061;-80
2023/02/22 20:13:59;;;;;;;24.35;17.40;;;;;;;7.54;67.49;99512.56;10350656;28;20068;-80
2023/02/22 20:19:01;;;;;;;21.98;16.60;;;;;;;7.53;67.12;99523.91;10352793;28;20053;-79
2023/02/22 20:24:06;;;;;;;23.92;17.15;;;;;;;7.55;67.33;99524.66;10354176;28;20133;-79
2023/02/22 20:29:09;;;;;;;20.90;15.93;;;;;;;7.56;66.99;99524.56;10356546;28;20049;-79
2023/02/22 20:34:11;;;;;;;25.52;17.20;;;;;;;7.54;66.82;99539.44;10352529;28;20049;-79
2023/02/22 20:39:13;;;;;;;31.27;18.52;;;;;;;7.53;66.56;99531.72;10343013;28;20045;-79
2023/02/22 20:44:17;;;;;;;24.50;17.23;;;;;;;7.53;66.74;99527.31;10340572;28;20058;-79
2023/02/22 20:49:24;;;;;;;24.33;16.40;;;;;;;7.56;67.04;99527.19;10338843;28;20569;-79
2023/02/22 20:54:27;;;;;;;24.00;16.67;;;;;;;7.52;66.81;99528.25;10327576;28;20050;-79
2023/02/22 20:59:29;;;;;;;24.67;17.00;;;;;;;7.50;67.16;99531.88;10340949;28;20089;-79
2023/02/22 21:04:31;;;;;;;22.90;16.67;;;;;;;7.52;66.89;99525.66;10340280;28;20147;-79
2023/02/22 21:09:34;;;;;;;25.10;15.68;;;;;;;7.60;66.83;99533.03;10337686;28;20053;-79
2023/02/22 21:14:36;;;;;;;23.20;15.48;;;;;;;7.65;66.84;99531.06;10336861;28;20443;-79
2023/02/22 21:19:38;;;;;;;23.75;16.95;;;;;;;7.66;66.79;99532.72;10341859;28;20081;-79
2023/02/22 21:24:40;;;;;;;22.25;16.05;;;;;;;7.67;66.67;99529.22;10339901;28;20164;-80
2023/02/22 21:29:43;;;;;;;23.02;16.20;;;;;;;7.56;66.99;99542.78;10344214;28;20048;-82
2023/02/22 21:35:00;;;;;;;24.55;17.50;;;;;;;7.51;67.17;99533.56;10344441;28;20077;-82
